Time;durP1;ratioP1;P1;durP2;ratioP2;P2;SDS_P1;SDS_P2;PMS_P1;PMS_P2;Temp;Humidity;BMP_temperature;BMP_pressure;BME280_temperature;BME280_humidity;BME280_pressure;Samples;Min_cycle;Max_cycle;Signal;HPM_P1;HPM_P2
2021/10/18 00:00:00;;;;;;;4.27;3.97;;;;;17.70;101125.00;;;;2095346;28;20227;-53
2021/10/18 00:01:01;;;;;;;3.90;3.60;;;;;17.80;101123.00;;;;2095265;28;20215;-54
2021/10/18 00:02:01;;;;;;;3.90;3.60;;;;;17.70;101118.00;;;;2095321;28;20247;-54
2021/10/18 00:03:01;;;;;;;4.13;3.80;;;;;17.70;101120.00;;;;2095380;28;20266;-54
2021/10/18 00:04:02;;;;;;;3.90;3.60;;;;;17.80;101113.00;;;;2095340;28;20212;-54
2021/10/18 00:05:03;;;;;;;3.70;3.40;;;;;17.70;101130.00;;;;2095375;28;20223;-54
2021/10/18 00:06:03;;;;;;;4.10;3.80;;;;;17.70;101113.00;;;;2095026;28;20227;-54
2021/10/18 00:07:04;;;;;;;4.03;3.73;;;;;17.70;101124.00;;;;2095335;28;20639;-54
2021/10/18 00:08:04;;;;;;;4.07;3.77;;;;;17.70;101112.00;;;;2095367;28;20216;-53
2021/10/18 00:09:05;;;;;;;3.93;3.63;;;;;17.70;101122.00;;;;2094916;28;20216;-53
2021/10/18 00:10:06;;;;;;;3.97;3.63;;;;;17.70;101121.00;;;;2095271;28;20666;-54
2021/10/18 00:11:06;;;;;;;3.75;3.42;;;;;17.70;101120.00;;;;2094929;28;20213;-56
2021/10/18 00:12:07;;;;;;;4.00;3.70;;;;;17.70;101114.00;;;;2095268;28;20795;-55
2021/10/18 00:13:07;;;;;;;4.00;3.70;;;;;17.70;101106.00;;;;2095217;28;20570;-56
2021/10/18 00:14:07;;;;;;;3.97;3.67;;;;;17.70;101115.00;;;;2095368;28;20212;-56
2021/10/18 00:15:10;;;;;;;4.10;3.80;;;;;17.70;101111.00;;;;2095237;28;20212;-56
2021/10/18 00:16:11;;;;;;;3.70;3.40;;;;;17.70;101114.00;;;;2091249;28;20573;-54
2021/10/18 00:17:11;;;;;;;4.13;3.80;;;;;17.70;101116.00;;;;2089227;28;20212;-53
2021/10/18 00:18:11;;;;;;;3.60;3.30;;;;;17.70;101114.00;;;;2089505;28;20251;-55
2021/10/18 00:19:12;;;;;;;4.47;4.07;;;;;17.70;101109.00;;;;2086668;28;20204;-54
2021/10/18 00:20:13;;;;;;;4.17;3.87;;;;;17.70;101101.00;;;;2087149;28;20215;-54
2021/10/18 00:21:15;;;;;;;3.85;3.55;;;;;17.70;101100.00;;;;2087056;28;20217;-54
2021/10/18 00:22:15;;;;;;;3.85;3.55;;;;;17.70;101095.00;;;;2086798;28;20283;-54
2021/10/18 00:23:16;;;;;;;3.83;3.53;;;;;17.70;101102.00;;;;2087052;28;20621;-54
2021/10/18 00:24:16;;;;;;;4.00;3.70;;;;;17.70;101094.00;;;;2087078;28;20239;-54
2021/10/18 00:25:16;;;;;;;3.80;3.50;;;;;17.70;101104.00;;;;2086861;28;20213;-54
2021/10/18 00:26:17;;;;;;;4.37;3.80;;;;;17.70;101092.00;;;;2086901;28;20690;-53
2021/10/18 00:27:17;;;;;;;3.83;3.53;;;;;17.70;101090.00;;;;2086613;28;20229;-54
2021/10/18 00:28:17;;;;;;;4.37;4.00;;;;;17.70;101101.00;;;;2086435;28;20208;-54
2021/10/18 00:29:18;;;;;;;3.20;3.00;;;;;17.70;101114.00;;;;2086354;28;20288;-53
2021/10/18 00:30:18;;;;;;;3.97;3.67;;;;;17.70;101104.00;;;;2088460;28;20270;-53
2021/10/18 00:31:19;;;;;;;4.43;4.03;;;;;17.70;101111.00;;;;2087912;28;20209;-54
2021/10/18 00:32:19;;;;;;;3.97;3.60;;;;;17.70;101107.00;;;;2088372;28;20686;-54
2021/10/18 00:33:20;;;;;;;3.70;3.40;;;;;17.70;101112.00;;;;2088309;28;20284;-53
2021/10/18 00:34:20;;;;;;;3.40;3.10;;;;;17.70;101100.00;;;;2088483;28;20594;-54
2021/10/18 00:35:20;;;;;;;3.60;3.30;;;;;17.70;101105.00;;;;2088340;28;20213;-54
2021/10/18 00:36:21;;;;;;;4.10;3.80;;;;;17.70;101106.00;;;;2088457;28;20288;-54
2021/10/18 00:37:21;;;;;;;4.00;3.70;;;;;17.70;101108.00;;;;2089805;28;20240;-54
2021/10/18 00:38:21;;;;;;;4.10;3.80;;;;;17.70;101106.00;;;;2096279;28;20212;-54
2021/10/18 00:39:22;;;;;;;4.03;3.73;;;;;17.70;101103.00;;;;2096252;28;20204;-54
2021/10/18 00:40:22;;;;;;;4.27;3.87;;;;;17.70;101111.00;;;;2096723;28;20228;-53
2021/10/18 00:41:22;;;;;;;3.83;3.53;;;;;17.70;101114.00;;;;2096700;28;20244;-54
2021/10/18 00:42:23;;;;;;;3.93;3.63;;;;;17.70;101112.00;;;;2096564;28;20633;-54
2021/10/18 00:43:23;;;;;;;4.07;3.77;;;;;17.70;101112.00;;;;2096474;28;20217;-54
2021/10/18 00:44:23;;;;;;;3.57;3.33;;;;;17.70;101110.00;;;;2095901;28;20216;-54
2021/10/18 00:45:24;;;;;;;4.03;3.73;;;;;17.70;101106.00;;;;2095331;28;20897;-54
2021/10/18 00:46:24;;;;;;;3.80;3.50;;;;;17.70;101101.00;;;;2091620;28;20294;-55
2021/10/18 00:47:25;;;;;;;4.13;3.83;;;;;17.70;101102.00;;;;2091332;28;20300;-54
2021/10/18 00:48:25;;;;;;;3.20;3.00;;;;;17.70;101104.00;;;;2090362;28;20316;-54
2021/10/18 00:49:25;;;;;;;4.00;3.60;;;;;17.70;101074.00;;;;2087714;28;20212;-54
2021/10/18 00:50:26;;;;;;;4.20;3.90;;;;;17.70;101106.00;;;;2088392;28;20304;-54
2021/10/18 00:51:26;;;;;;;3.83;3.53;;;;;17.70;101107.00;;;;2087267;28;20311;-53
2021/10/18 00:52:27;;;;;;;4.07;3.50;;;;;17.70;101105.00;;;;2086183;28;20220;-54
2021/10/18 00:53:27;;;;;;;3.73;3.43;;;;;17.70;101108.00;;;;2091435;28;20465;-54
2021/10/18 00:54:27;;;;;;;3.80;3.50;;;;;17.70;101103.00;;;;2095739;28;20226;-54
2021/10/18 00:55:28;;;;;;;4.07;3.77;;;;;17.70;101103.00;;;;2095570;28;20366;-54
2021/10/18 00:56:28;;;;;;;3.93;3.63;;;;;17.70;101104.00;;;;2095916;28;20211;-54
2021/10/18 00:57:29;;;;;;;3.70;3.40;;;;;17.70;101105.00;;;;2096084;28;20204;-54
2021/10/18 00:58:29;;;;;;;3.37;3.10;;;;;17.70;101107.00;;;;2095922;28;20287;-54
2021/10/18 00:59:30;;;;;;;3.70;3.40;;;;;17.70;101102.00;;;;2094131;28;20216;-54
2021/10/18 01:00:30;;;;;;;3.55;3.35;;;;;17.70;101092.00;;;;2095633;28;20716;-54
2021/10/18 01:01:31;;;;;;;3.43;3.23;;;;;17.70;101111.00;;;;2095711;28;20221;-53
2021/10/18 01:02:31;;;;;;;4.50;3.90;;;;;17.70;101101.00;;;;2091046;28;20745;-54
2021/10/18 01:03:31;;;;;;;3.60;3.30;;;;;17.70;101101.00;;;;2087662;28;20698;-54
2021/10/18 01:04:32;;;;;;;3.50;3.20;;;;;17.70;101096.00;;;;2087621;28;20611;-54
2021/10/18 01:05:35;;;;;;;4.07;3.77;;;;;17.70;101093.00;;;;2087327;28;20216;-53
2021/10/18 01:06:35;;;;;;;3.95;3.65;;;;;17.70;101103.00;;;;2087595;28;20216;-54
2021/10/18 01:07:36;;;;;;;3.67;3.37;;;;;17.70;101104.00;;;;2087560;28;20221;-54
2021/10/18 01:08:36;;;;;;;3.97;3.57;;;;;17.70;101104.00;;;;2087283;28;20287;-54
2021/10/18 01:09:37;;;;;;;3.63;3.33;;;;;17.70;101103.00;;;;2086725;28;20274;-54
2021/10/18 01:10:37;;;;;;;3.90;3.60;;;;;17.70;101105.00;;;;2086796;28;20382;-54
2021/10/18 01:11:37;;;;;;;3.50;3.20;;;;;17.70;101105.00;;;;2087530;28;20259;-54
2021/10/18 01:12:38;;;;;;;3.80;3.50;;;;;17.70;101102.00;;;;2094021;28;20373;-54
2021/10/18 01:13:38;;;;;;;3.70;3.40;;;;;17.70;101106.00;;;;2094294;28;20242;-54
2021/10/18 01:14:38;;;;;;;3.60;3.30;;;;;17.70;101104.00;;;;2088223;28;20217;-54
2021/10/18 01:15:39;;;;;;;3.57;3.27;;;;;17.70;101102.00;;;;2090622;28;20311;-55
2021/10/18 01:16:39;;;;;;;3.70;3.40;;;;;17.70;101105.00;;;;2091532;28;20321;-53
2021/10/18 01:17:39;;;;;;;3.47;3.17;;;;;17.70;101111.00;;;;2090185;28;20263;-54
2021/10/18 01:18:40;;;;;;;3.30;3.10;;;;;17.70;101109.00;;;;2088112;28;20294;-53
2021/10/18 01:19:40;;;;;;;3.10;2.80;;;;;17.70;101108.00;;;;2087871;28;20831;-53
2021/10/18 01:20:40;;;;;;;3.63;3.33;;;;;17.70;101105.00;;;;2088218;28;20625;-54
2021/10/18 01:21:41;;;;;;;2.93;2.73;;;;;17.70;101105.00;;;;2086027;28;20224;-53
2021/10/18 01:22:42;;;;;;;3.87;3.47;;;;;17.70;101112.00;;;;2094432;28;20866;-55
2021/10/18 01:23:42;;;;;;;3.70;3.40;;;;;17.70;101107.00;;;;2096500;28;20442;-54
2021/10/18 01:24:42;;;;;;;3.73;3.43;;;;;17.70;101100.00;;;;2096384;28;20219;-54
2021/10/18 01:25:43;;;;;;;4.00;3.70;;;;;17.70;101109.00;;;;2096184;28;20227;-54
2021/10/18 01:26:43;;;;;;;5.03;3.43;;;;;17.70;101100.00;;;;2096308;28;20235;-54
2021/10/18 01:27:43;;;;;;;4.03;3.70;;;;;17.70;101103.00;;;;2093489;28;20303;-54
2021/10/18 01:28:44;;;;;;;3.83;3.53;;;;;17.70;101108.00;;;;2096002;28;20699;-54
2021/10/18 01:29:44;;;;;;;3.40;3.10;;;;;17.70;101110.00;;;;2096308;28;20728;-54
2021/10/18 01:30:44;;;;;;;3.70;3.40;;;;;17.70;101115.00;;;;2096128;28;20216;-54
2021/10/18 01:31:45;;;;;;;3.90;3.50;;;;;17.70;101112.00;;;;2096318;28;20752;-54
2021/10/18 01:32:45;;;;;;;3.23;3.03;;;;;17.70;101116.00;;;;2096006;28;20583;-54
2021/10/18 01:33:46;;;;;;;3.83;3.53;;;;;17.70;101119.00;;;;2096204;28;20213;-54
2021/10/18 01:34:46;;;;;;;3.40;3.10;;;;;17.70;101114.00;;;;2096397;28;20594;-54
2021/10/18 01:35:47;;;;;;;3.50;3.20;;;;;17.70;101122.00;;;;2095883;28;20215;-53
2021/10/18 01:36:47;;;;;;;3.50;3.30;;;;;17.70;101117.00;;;;2095595;28;20216;-53
2021/10/18 01:37:49;;;;;;;3.33;3.13;;;;;17.70;101115.00;;;;2095449;28;20212;-53
2021/10/18 01:38:49;;;;;;;3.70;3.40;;;;;17.70;101117.00;;;;2094971;28;20692;-55
2021/10/18 01:39:50;;;;;;;3.87;3.57;;;;;17.70;101122.00;;;;2096242;28;20208;-54
2021/10/18 01:40:50;;;;;;;3.70;3.40;;;;;17.70;101126.00;;;;2096231;28;20295;-54
2021/10/18 01:41:50;;;;;;;3.00;2.80;;;;;17.70;101127.00;;;;2096250;28;20223;-54
2021/10/18 01:42:51;;;;;;;3.20;3.00;;;;;17.70;101122.00;;;;2096075;28;20223;-54
2021/10/18 01:43:51;;;;;;;2.83;2.63;;;;;17.70;101133.00;;;;2096175;28;20220;-54
2021/10/18 01:44:51;;;;;;;3.97;3.60;;;;;17.70;101123.00;;;;2096249;28;20685;-54
2021/10/18 01:45:52;;;;;;;3.37;3.17;;;;;17.70;101122.00;;;;2093916;28;20382;-54
2021/10/18 01:46:52;;;;;;;3.67;3.37;;;;;17.70;101119.00;;;;2090582;28;20201;-54
2021/10/18 01:47:52;;;;;;;3.63;3.33;;;;;17.70;101121.00;;;;2090180;28;20208;-53
2021/10/18 01:48:53;;;;;;;3.73;3.43;;;;;17.70;101121.00;;;;2085766;28;20205;-54
2021/10/18 01:49:56;;;;;;;3.73;3.43;;;;;17.70;101117.00;;;;2088015;28;20221;-54
2021/10/18 01:50:57;;;;;;;3.75;3.45;;;;;17.70;101130.00;;;;2087801;28;20208;-54
2021/10/18 01:51:57;;;;;;;4.03;3.73;;;;;17.70;101124.00;;;;2087808;28;20241;-53
2021/10/18 01:52:57;;;;;;;3.20;3.00;;;;;17.70;101116.00;;;;2087935;28;20698;-54
2021/10/18 01:53:58;;;;;;;3.27;3.07;;;;;17.70;101117.00;;;;2087898;28;20213;-54
2021/10/18 01:54:58;;;;;;;3.80;3.50;;;;;17.70;101119.00;;;;2087932;28;20205;-53
2021/10/18 01:55:58;;;;;;;3.70;3.40;;;;;17.70;101130.00;;;;2087797;28;20254;-54
2021/10/18 01:56:59;;;;;;;3.77;3.47;;;;;17.70;101127.00;;;;2087911;28;20297;-53
2021/10/18 01:57:59;;;;;;;3.37;3.07;;;;;17.70;101115.00;;;;2087952;28;20197;-54
2021/10/18 01:59:00;;;;;;;3.60;3.40;;;;;17.70;101116.00;;;;2087277;28;20371;-54
2021/10/18 02:00:01;;;;;;;3.45;3.15;;;;;17.70;101117.00;;;;2087022;28;20672;-54
2021/10/18 02:01:03;;;;;;;4.10;3.33;;;;;17.70;101116.00;;;;2091488;28;20339;-54
2021/10/18 02:02:03;;;;;;;3.10;2.90;;;;;17.70;101120.00;;;;2096145;28;20231;-54
2021/10/18 02:03:04;;;;;;;3.40;3.10;;;;;17.70;101118.00;;;;2096059;28;20216;-55
2021/10/18 02:04:04;;;;;;;3.63;3.33;;;;;17.70;101120.00;;;;2096091;28;20227;-54
2021/10/18 02:05:05;;;;;;;2.80;2.60;;;;;17.70;101133.00;;;;2095916;28;20212;-54
2021/10/18 02:06:08;;;;;;;3.80;3.50;;;;;17.70;101125.00;;;;2095200;28;20724;-54
2021/10/18 02:07:09;;;;;;;3.40;3.20;;;;;17.70;101120.00;;;;2096100;28;20598;-54
2021/10/18 02:08:09;;;;;;;3.17;2.97;;;;;17.70;101120.00;;;;2096015;28;20302;-53
2021/10/18 02:09:09;;;;;;;3.30;3.00;;;;;17.70;101124.00;;;;2095614;28;20223;-54
2021/10/18 02:10:10;;;;;;;3.50;3.20;;;;;17.70;101118.00;;;;2095961;28;20227;-53
2021/10/18 02:11:12;;;;;;;3.60;3.30;;;;;17.70;101115.00;;;;2090261;28;20264;-54
2021/10/18 02:12:12;;;;;;;3.20;3.00;;;;;17.70;101120.00;;;;2087606;28;20301;-54
2021/10/18 02:13:12;;;;;;;2.60;2.40;;;;;17.70;101124.00;;;;2087761;28;20275;-54
2021/10/18 02:14:13;;;;;;;3.33;3.03;;;;;17.70;101121.00;;;;2087677;28;20227;-53
2021/10/18 02:15:13;;;;;;;3.33;3.13;;;;;17.70;101122.00;;;;2095284;28;20223;-54
2021/10/18 02:16:14;;;;;;;3.37;3.07;;;;;17.70;101120.00;;;;2090675;28;21132;-54
2021/10/18 02:17:14;;;;;;;3.03;2.83;;;;;17.70;101115.00;;;;2090274;28;20216;-54
2021/10/18 02:18:14;;;;;;;3.00;2.80;;;;;17.70;101113.00;;;;2091038;28;20271;-54
2021/10/18 02:19:15;;;;;;;3.63;3.33;;;;;17.70;101118.00;;;;2095444;28;20219;-54
2021/10/18 02:20:16;;;;;;;3.63;3.33;;;;;17.70;101117.00;;;;2090061;28;20724;-54
2021/10/18 02:21:16;;;;;;;3.50;3.30;;;;;17.70;101115.00;;;;2087510;28;20720;-54
2021/10/18 02:22:16;;;;;;;3.23;3.03;;;;;17.70;101115.00;;;;2087567;28;20555;-53
2021/10/18 02:23:17;;;;;;;3.53;3.23;;;;;17.70;101112.00;;;;2087753;28;20212;-54
2021/10/18 02:24:17;;;;;;;3.23;3.03;;;;;17.70;101114.00;;;;2087662;28;20274;-53
2021/10/18 02:25:17;;;;;;;3.10;2.90;;;;;17.70;101114.00;;;;2087772;28;20704;-53
2021/10/18 02:26:18;;;;;;;2.80;2.60;;;;;17.70;101108.00;;;;2087550;28;20865;-54
2021/10/18 02:27:18;;;;;;;3.10;2.90;;;;;17.70;101099.00;;;;2088896;28;20240;-54
2021/10/18 02:28:18;;;;;;;2.80;2.60;;;;;17.70;101107.00;;;;2095908;28;20216;-53
2021/10/18 02:29:19;;;;;;;2.97;2.70;;;;;17.70;101103.00;;;;2095409;28;20211;-54
2021/10/18 02:30:19;;;;;;;3.10;2.90;;;;;17.70;101100.00;;;;2095851;28;20219;-54
2021/10/18 02:31:19;;;;;;;3.57;3.27;;;;;17.70;101099.00;;;;2095666;28;20307;-54
2021/10/18 02:32:20;;;;;;;3.10;2.90;;;;;17.70;101102.00;;;;2095882;28;20208;-54
2021/10/18 02:33:20;;;;;;;2.90;2.70;;;;;17.70;101100.00;;;;2095867;28;20216;-54
2021/10/18 02:34:20;;;;;;;3.60;3.30;;;;;17.70;101088.00;;;;2095803;28;20672;-54
2021/10/18 02:35:21;;;;;;;3.20;2.90;;;;;17.70;101101.00;;;;2095943;28;20581;-54
2021/10/18 02:36:21;;;;;;;2.83;2.63;;;;;17.70;101100.00;;;;2095770;28;20212;-54
2021/10/18 02:37:21;;;;;;;3.40;3.10;;;;;17.70;101105.00;;;;2095621;28;20208;-54
2021/10/18 02:38:22;;;;;;;3.13;2.93;;;;;17.70;101092.00;;;;2095813;28;20219;-55
2021/10/18 02:39:22;;;;;;;3.00;2.80;;;;;17.70;101104.00;;;;2095352;28;20219;-53
2021/10/18 02:40:22;;;;;;;3.17;2.97;;;;;17.70;101103.00;;;;2095768;28;20299;-54
2021/10/18 02:41:23;;;;;;;2.87;2.67;;;;;17.70;101103.00;;;;2095718;28;20216;-53
2021/10/18 02:42:23;;;;;;;3.30;3.10;;;;;17.70;101103.00;;;;2095557;28;20216;-54
2021/10/18 02:43:24;;;;;;;3.40;3.10;;;;;17.70;101094.00;;;;2095766;28;20208;-53
2021/10/18 02:44:24;;;;;;;3.40;3.10;;;;;17.70;101105.00;;;;2095772;28;20212;-54
2021/10/18 02:45:24;;;;;;;3.00;2.80;;;;;17.70;101092.00;;;;2094682;28;20204;-54
2021/10/18 02:46:24;;;;;;;2.90;2.70;;;;;17.70;101089.00;;;;2090224;28;20300;-54
2021/10/18 02:47:25;;;;;;;3.13;2.93;;;;;17.70;101096.00;;;;2089856;28;20213;-54
2021/10/18 02:48:25;;;;;;;2.90;2.70;;;;;17.50;101093.00;;;;2091733;28;20216;-53
2021/10/18 02:49:26;;;;;;;3.07;2.83;;;;;17.70;101084.00;;;;2095423;28;20225;-54
2021/10/18 02:50:26;;;;;;;3.30;3.10;;;;;17.70;101095.00;;;;2095105;28;20219;-54
2021/10/18 02:51:26;;;;;;;3.33;3.00;;;;;17.70;101081.00;;;;2095550;28;20296;-54
2021/10/18 02:52:27;;;;;;;3.10;2.90;;;;;17.70;101090.00;;;;2095602;28;20216;-53
2021/10/18 02:53:27;;;;;;;3.30;3.00;;;;;17.70;101092.00;;;;2095629;28;20204;-54
2021/10/18 02:54:27;;;;;;;3.03;2.83;;;;;17.70;101085.00;;;;2095738;28;20216;-54
2021/10/18 02:55:28;;;;;;;3.30;3.03;;;;;17.70;101102.00;;;;2095843;28;20287;-54
2021/10/18 02:56:28;;;;;;;3.57;3.27;;;;;17.70;101093.00;;;;2095652;28;20212;-54
2021/10/18 02:57:28;;;;;;;3.07;2.87;;;;;17.70;101106.00;;;;2095825;28;20674;-54
2021/10/18 02:58:29;;;;;;;3.13;2.93;;;;;17.70;101108.00;;;;2095119;28;20289;-57
2021/10/18 02:59:29;;;;;;;2.80;2.60;;;;;17.70;101102.00;;;;2095264;28;20355;-55
2021/10/18 03:00:29;;;;;;;2.80;2.60;;;;;17.70;101108.00;;;;2095684;28;20261;-54
2021/10/18 03:01:30;;;;;;;2.77;2.57;;;;;17.70;101112.00;;;;2095548;28;20218;-56
2021/10/18 03:02:30;;;;;;;2.90;2.70;;;;;17.70;101107.00;;;;2094593;28;20233;-56
2021/10/18 03:03:30;;;;;;;3.00;2.80;;;;;17.70;101111.00;;;;2095570;28;20205;-54
2021/10/18 03:04:31;;;;;;;3.50;3.20;;;;;17.70;101113.00;;;;2095755;28;20208;-54
2021/10/18 03:05:31;;;;;;;2.90;2.70;;;;;17.70;101107.00;;;;2095688;28;20205;-54
2021/10/18 03:06:31;;;;;;;3.00;2.53;;;;;17.70;101109.00;;;;2095232;28;20208;-54
2021/10/18 03:07:32;;;;;;;3.10;2.80;;;;;17.70;101101.00;;;;2095679;28;20572;-55
2021/10/18 03:08:32;;;;;;;2.87;2.67;;;;;17.60;101100.00;;;;2095464;28;20231;-54
2021/10/18 03:09:32;;;;;;;2.93;2.73;;;;;17.70;101106.00;;;;2090910;28;20204;-55
2021/10/18 03:10:33;;;;;;;3.00;2.80;;;;;17.70;101104.00;;;;2087496;28;20578;-54
2021/10/18 03:11:34;;;;;;;2.90;2.70;;;;;17.70;101093.00;;;;2086656;28;20255;-57
2021/10/18 03:12:34;;;;;;;3.07;2.87;;;;;17.70;101099.00;;;;2087225;28;20692;-54
2021/10/18 03:13:34;;;;;;;2.77;2.57;;;;;17.70;101092.00;;;;2087294;28;20260;-54
2021/10/18 03:14:35;;;;;;;3.50;3.20;;;;;17.70;101089.00;;;;2087170;28;20320;-54
2021/10/18 03:15:35;;;;;;;3.07;2.87;;;;;17.60;101091.00;;;;2090203;28;20617;-53
2021/10/18 03:16:35;;;;;;;3.10;2.90;;;;;17.70;101105.00;;;;2089670;28;20251;-54
2021/10/18 03:17:36;;;;;;;2.90;2.70;;;;;17.70;101105.00;;;;2089484;28;20213;-53
2021/10/18 03:18:37;;;;;;;3.13;2.90;;;;;17.70;101112.00;;;;2087764;28;20208;-53
2021/10/18 03:19:37;;;;;;;2.40;2.25;;;;;17.70;101113.00;;;;2095029;28;20299;-55
2021/10/18 03:20:38;;;;;;;2.80;2.60;;;;;17.70;101104.00;;;;2095739;28;20207;-54
2021/10/18 03:21:38;;;;;;;2.70;2.50;;;;;17.70;101105.00;;;;2095503;28;20239;-55
2021/10/18 03:22:39;;;;;;;2.80;2.60;;;;;17.70;101118.00;;;;2090420;28;20715;-54
2021/10/18 03:23:39;;;;;;;2.70;2.50;;;;;17.70;101099.00;;;;2103188;28;20227;-53
2021/10/18 03:24:39;;;;;;;2.80;2.60;;;;;17.70;101104.00;;;;2098687;28;20864;-54
2021/10/18 03:25:40;;;;;;;3.10;2.90;;;;;17.70;101099.00;;;;2095249;28;20758;-54
2021/10/18 03:26:40;;;;;;;3.00;2.80;;;;;17.70;101094.00;;;;2095223;28;20603;-54
2021/10/18 03:27:40;;;;;;;2.60;2.40;;;;;17.70;101100.00;;;;2095022;28;20247;-54
2021/10/18 03:28:42;;;;;;;2.80;2.60;;;;;17.70;101108.00;;;;2094657;28;20299;-54
2021/10/18 03:29:42;;;;;;;2.92;2.72;;;;;17.70;101107.00;;;;2094904;28;20553;-54
2021/10/18 03:30:42;;;;;;;3.07;2.80;;;;;17.70;101101.00;;;;2094836;28;20232;-54
2021/10/18 03:31:43;;;;;;;2.63;2.43;;;;;17.70;101099.00;;;;2095032;28;20800;-54
2021/10/18 03:32:43;;;;;;;3.00;2.80;;;;;17.70;101094.00;;;;2094945;28;20631;-54
2021/10/18 03:33:43;;;;;;;2.90;2.70;;;;;17.70;101099.00;;;;2087436;28;20251;-54
2021/10/18 03:34:44;;;;;;;3.37;2.60;;;;;17.70;101104.00;;;;2086789;28;20220;-53
2021/10/18 03:35:44;;;;;;;2.33;2.23;;;;;17.60;101096.00;;;;2086863;28;20367;-54
2021/10/18 03:36:44;;;;;;;2.83;2.63;;;;;17.70;101091.00;;;;2085690;28;20224;-55
2021/10/18 03:37:45;;;;;;;2.80;2.60;;;;;17.70;101108.00;;;;2086301;28;20220;-54
2021/10/18 03:38:45;;;;;;;3.00;2.80;;;;;17.60;101104.00;;;;2086578;28;20216;-54
2021/10/18 03:39:45;;;;;;;2.70;2.50;;;;;17.70;101101.00;;;;2086724;28;20220;-54
2021/10/18 03:40:46;;;;;;;3.17;2.97;;;;;17.60;101096.00;;;;2086695;28;20454;-54
2021/10/18 03:41:46;;;;;;;2.70;2.50;;;;;17.60;101100.00;;;;2086688;28;20236;-54
2021/10/18 03:42:46;;;;;;;2.60;2.40;;;;;17.60;101096.00;;;;2090193;28;20267;-54
2021/10/18 03:43:47;;;;;;;2.57;2.37;;;;;17.70;101110.00;;;;2085725;28;20216;-54
2021/10/18 03:44:47;;;;;;;2.73;2.53;;;;;17.70;101105.00;;;;2086996;28;20213;-53
2021/10/18 03:45:47;;;;;;;2.63;2.43;;;;;17.70;101102.00;;;;2089342;28;20208;-54
2021/10/18 03:46:48;;;;;;;3.00;2.80;;;;;17.70;101104.00;;;;2088485;28;20204;-53
2021/10/18 03:47:48;;;;;;;3.00;2.80;;;;;17.70;101104.00;;;;2088183;28;20216;-54
2021/10/18 03:48:49;;;;;;;3.23;2.93;;;;;17.70;101107.00;;;;2086282;28;20213;-54
2021/10/18 03:49:49;;;;;;;2.53;2.33;;;;;17.70;101104.00;;;;2086797;28;20209;-54
2021/10/18 03:50:49;;;;;;;2.77;2.57;;;;;17.70;101103.00;;;;2086913;28;20299;-53
2021/10/18 03:51:50;;;;;;;3.90;2.53;;;;;17.70;101106.00;;;;2086619;28;20236;-53
2021/10/18 03:52:50;;;;;;;2.60;2.40;;;;;17.70;101103.00;;;;2086734;28;20212;-54
2021/10/18 03:53:50;;;;;;;2.53;2.33;;;;;17.70;101107.00;;;;2086794;28;20270;-54
2021/10/18 03:54:51;;;;;;;2.80;2.60;;;;;17.70;101102.00;;;;2085734;28;20298;-54
2021/10/18 03:55:51;;;;;;;2.63;2.43;;;;;17.60;101106.00;;;;2086772;28;20304;-53
2021/10/18 03:56:51;;;;;;;2.80;2.60;;;;;17.70;101112.00;;;;2086259;28;20259;-54
2021/10/18 03:57:52;;;;;;;2.57;2.43;;;;;17.70;101108.00;;;;2086590;28;20213;-54
2021/10/18 03:58:52;;;;;;;3.07;2.77;;;;;17.70;101106.00;;;;2089744;28;20204;-53
2021/10/18 03:59:52;;;;;;;2.93;2.73;;;;;17.70;101104.00;;;;2095504;28;20751;-53
2021/10/18 04:00:53;;;;;;;2.57;2.37;;;;;17.70;101108.00;;;;2095534;28;20574;-53
2021/10/18 04:01:53;;;;;;;2.57;2.30;;;;;17.70;101105.00;;;;2095905;28;20220;-54
2021/10/18 04:02:54;;;;;;;2.70;2.50;;;;;17.70;101115.00;;;;2096814;28;20307;-53
2021/10/18 04:03:54;;;;;;;2.73;2.53;;;;;17.70;101109.00;;;;2097070;28;20208;-54
2021/10/18 04:04:54;;;;;;;2.80;2.60;;;;;17.60;101109.00;;;;2096981;28;20208;-54
2021/10/18 04:05:55;;;;;;;2.70;2.40;;;;;17.60;101116.00;;;;2095491;28;20281;-54
2021/10/18 04:06:57;;;;;;;2.30;2.20;;;;;17.60;101116.00;;;;2096921;28;20222;-54
2021/10/18 04:07:57;;;;;;;2.55;2.35;;;;;17.70;101116.00;;;;2096072;28;20224;-55
2021/10/18 04:08:58;;;;;;;2.63;2.43;;;;;17.70;101115.00;;;;2095985;28;20419;-53
2021/10/18 04:09:58;;;;;;;2.67;2.47;;;;;17.70;101125.00;;;;2096966;28;20227;-54
2021/10/18 04:10:59;;;;;;;2.20;2.10;;;;;17.70;101115.00;;;;2092134;28;20220;-53
2021/10/18 04:12:00;;;;;;;2.45;2.25;;;;;17.60;101112.00;;;;2088511;28;20315;-53
2021/10/18 04:13:01;;;;;;;2.53;2.33;;;;;17.70;101112.00;;;;2088490;28;20209;-53
2021/10/18 04:14:01;;;;;;;2.77;2.57;;;;;17.60;101121.00;;;;2088661;28;20212;-54
2021/10/18 04:15:02;;;;;;;3.37;2.70;;;;;17.60;101115.00;;;;2087196;28;20622;-54
2021/10/18 04:16:02;;;;;;;2.80;2.60;;;;;17.60;101120.00;;;;2090800;28;20626;-54
2021/10/18 04:17:03;;;;;;;2.40;2.20;;;;;17.60;101121.00;;;;2090088;28;20572;-54
2021/10/18 04:18:03;;;;;;;2.77;2.57;;;;;17.60;101119.00;;;;2087192;28;20208;-54
2021/10/18 04:19:04;;;;;;;2.90;2.70;;;;;17.50;101126.00;;;;2100151;28;20199;-54
2021/10/18 04:20:05;;;;;;;2.55;2.35;;;;;17.60;101125.00;;;;2093666;28;20317;-54
2021/10/18 04:21:06;;;;;;;2.53;2.33;;;;;17.60;101122.00;;;;2095940;28;20243;-54
2021/10/18 04:22:07;;;;;;;2.75;2.55;;;;;17.60;101126.00;;;;2096085;28;20468;-53
2021/10/18 04:23:07;;;;;;;2.67;2.47;;;;;17.70;101122.00;;;;2097034;28;20648;-53
2021/10/18 04:24:07;;;;;;;2.43;2.23;;;;;17.70;101122.00;;;;2095949;28;20291;-54
2021/10/18 04:25:08;;;;;;;2.67;2.47;;;;;17.70;101128.00;;;;2096321;28;20212;-54
2021/10/18 04:26:09;;;;;;;2.60;2.43;;;;;17.70;101128.00;;;;2096492;28;20216;-54
2021/10/18 04:27:09;;;;;;;3.10;2.87;;;;;17.70;101129.00;;;;2096755;28;20258;-54
2021/10/18 04:28:09;;;;;;;2.67;2.47;;;;;17.60;101123.00;;;;2096754;28;20537;-54
2021/10/18 04:29:10;;;;;;;3.20;3.00;;;;;17.60;101131.00;;;;2096330;28;20204;-54
2021/10/18 04:30:10;;;;;;;2.53;2.33;;;;;17.60;101129.00;;;;2091228;28;20555;-55
2021/10/18 04:31:11;;;;;;;2.70;2.50;;;;;17.70;101126.00;;;;2083126;28;20610;-54
2021/10/18 04:32:11;;;;;;;3.20;2.70;;;;;17.70;101130.00;;;;2088367;28;20215;-54
2021/10/18 04:33:11;;;;;;;2.40;2.20;;;;;17.60;101133.00;;;;2088437;28;20274;-53
2021/10/18 04:34:12;;;;;;;2.30;2.10;;;;;17.70;101131.00;;;;2086769;28;21857;-55
2021/10/18 04:35:13;;;;;;;2.37;2.27;;;;;17.70;101132.00;;;;2096420;28;20255;-55
2021/10/18 04:36:13;;;;;;;2.70;2.50;;;;;17.70;101127.00;;;;2096714;28;20445;-54
2021/10/18 04:37:14;;;;;;;2.40;2.20;;;;;17.70;101142.00;;;;2096561;28;20212;-56
2021/10/18 04:38:14;;;;;;;2.80;2.60;;;;;17.60;101148.00;;;;2095923;28;20204;-55
2021/10/18 04:39:14;;;;;;;2.80;2.60;;;;;17.70;101134.00;;;;2096289;28;20725;-54
2021/10/18 04:40:15;;;;;;;2.73;2.50;;;;;17.70;101140.00;;;;2096559;28;20212;-56
2021/10/18 04:41:15;;;;;;;2.80;2.60;;;;;17.70;101137.00;;;;2095205;28;20313;-55
2021/10/18 04:42:15;;;;;;;2.47;2.27;;;;;17.70;101134.00;;;;2096580;28;20239;-55
2021/10/18 04:43:16;;;;;;;2.63;2.43;;;;;17.70;101137.00;;;;2081015;28;20261;-56
2021/10/18 04:44:16;;;;;;;2.67;2.47;;;;;17.70;101142.00;;;;2104131;28;20219;-55
2021/10/18 04:45:16;;;;;;;2.50;2.30;;;;;17.70;101133.00;;;;2103295;28;20234;-55
2021/10/18 04:46:17;;;;;;;1.93;1.83;;;;;17.60;101135.00;;;;2086835;28;20753;-55
2021/10/18 04:47:19;;;;;;;2.53;2.33;;;;;17.60;101137.00;;;;2094180;28;20262;-55
2021/10/18 04:48:19;;;;;;;2.75;2.55;;;;;17.70;101140.00;;;;2089038;28;20247;-55
2021/10/18 04:49:20;;;;;;;2.63;2.43;;;;;17.70;101138.00;;;;2087392;28;20204;-55
2021/10/18 04:50:21;;;;;;;2.10;2.00;;;;;17.70;101133.00;;;;2087146;28;20253;-54
2021/10/18 04:51:21;;;;;;;2.73;2.53;;;;;17.60;101133.00;;;;2088253;28;20216;-55
2021/10/18 04:52:22;;;;;;;2.23;2.13;;;;;17.60;101133.00;;;;2088185;28;20455;-55
2021/10/18 04:53:23;;;;;;;3.28;2.83;;;;;17.60;101131.00;;;;2088213;28;20212;-55
2021/10/18 04:54:23;;;;;;;2.80;2.60;;;;;17.60;101140.00;;;;2088294;28;20763;-54
2021/10/18 04:55:24;;;;;;;2.63;2.43;;;;;17.60;101137.00;;;;2087303;28;20228;-55
2021/10/18 04:56:24;;;;;;;2.50;2.30;;;;;17.60;101141.00;;;;2087535;28;20278;-55
2021/10/18 04:57:25;;;;;;;3.07;2.77;;;;;17.60;101142.00;;;;2088103;28;20270;-55
2021/10/18 04:58:26;;;;;;;2.75;2.55;;;;;17.60;101143.00;;;;2087455;28;20217;-54